• Join FlightAware (Why Join?)
  • Login
  • US Flag 
 
02:21AM EST


 

Airport Tracker/Info


-or-


 

Live Flight TrackerFlight Track Log ✈ OPT429 ✈ 01-Aug-2014 ✈ KJFK - KPVD

Flight Track Log - Related Links

Times and Time Zones

All times are in EDT time to prevent confusion due to time zone crossing. See the OPT429 flight status page for this flight to view local times or setup timezone preferences in your user account.

Time Position Orientation Groundspeed Altitude Reporting Facility
EDT Latitude Longitude Course Direction KTS MPH feet Rate Location/Type
10:24PM 40.6036 -73.8039 170° South 210 242 2,100  Level Boston Center
10:25PM 40.5469 -73.7911 170° South 253 291 4,700 2,820 Climbing Boston Center
10:26PM 40.6000 -73.7000 52° Northeast 283 326 8,000 2,880 Climbing New York TRACON
10:27PM 40.6667 -73.6333 37° Northeast 286 329 10,900 1,380 Climbing New York TRACON
10:29PM 40.7842 -73.5117 38° Northeast 315 362 12,300 720 Climbing Boston Center
10:30PM 40.8561 -73.4403 37° Northeast 320 368 13,100 1,320 Climbing Boston Center
10:31PM 40.9328 -73.3661 36° Northeast 337 388 15,000 900 Climbing Boston Center
10:32PM 41.0056 -73.2881 39° Northeast 338 389 15,000  Level Boston Center
10:33PM 41.0867 -73.1994 39° Northeast 371 427 15,000  Level Boston Center
10:34PM 41.1681 -73.1075 40° Northeast 377 434 15,000  Level Boston Center
10:35PM 41.2486 -73.0175 40° Northeast 377 434 15,000  Level Boston Center
10:36PM 41.3119 -72.8861 57° Northeast 381 438 15,000  Level Boston Center
10:37PM 41.3181 -72.7442 87° East 384 442 15,000  Level Boston Center
10:38PM 41.3236 -72.5989 87° East 388 447 15,000  Level Boston Center
10:39PM 41.3294 -72.4978 86° East 398 458 15,000 -240 Level Boston Center
10:39PM 41.3297 -72.4433 90° East 393 452 14,800 -1,140 Descending Boston Center
10:40PM 41.3339 -72.3008 88° East 391 450 13,500 -1,500 Descending Boston Center
10:41PM 41.3831 -72.1756 62° Northeast 382 440 11,800 -1,680 Descending Boston Center
10:42PM 41.4381 -72.0611 57° Northeast 345 397 10,200 -900 Descending Boston Center
10:43PM 41.4839 -71.9572 59° Northeast 312 359 10,000 -120 Descending Boston Center
10:44PM 41.5308 -71.8567 58° Northeast 325 374 10,000 -720 Level Boston Center
10:45PM 41.5742 -71.7633 58° Northeast 287 330 8,600 -1,500 Descending Boston Center
10:46PM 41.6147 -71.6717 59° Northeast 278 320 7,000 -780 Descending Boston Center
10:47PM 41.6742 -71.6042 40° Northeast 284 327 7,000 -1,080 Level Boston Center
10:48PM 41.7375 -71.5494 33° Northeast 271 312 4,800 -1,920 Descending Boston Center
10:49PM 41.7992 -71.4914 35° Northeast 264 304 3,300 -1,380 Descending Boston Center
10:50PM 41.8178 -71.4317 67° East 188 216 2,100 -960 Descending Boston Center
10:51PM 41.7839 -71.3964 142° Southeast 144 166 1,400 -780 Descending Boston Center
10:52PM 41.7494 -71.4067 193° South 126 145 600 -780 Descending Boston Center